sensor_id;sensor_type;location;lat;lon;timestamp;temperature;humidity
5226;DHT22;2632;51.666;7.146;2023-12-07T00:00:38;3.10;99.90
5226;DHT22;2632;51.666;7.146;2023-12-07T00:03:04;3.10;99.90
5226;DHT22;2632;51.666;7.146;2023-12-07T00:05:34;3.00;99.90
5226;DHT22;2632;51.666;7.146;2023-12-07T00:08:01;3.00;99.90
5226;DHT22;2632;51.666;7.146;2023-12-07T00:10:28;3.00;99.90
5226;DHT22;2632;51.666;7.146;2023-12-07T00:12:54;3.00;99.90
5226;DHT22;2632;51.666;7.146;2023-12-07T00:15:21;3.00;99.90
5226;DHT22;2632;51.666;7.146;2023-12-07T00:17:48;3.00;99.90
5226;DHT22;2632;51.666;7.146;2023-12-07T00:20:14;2.90;99.90
5226;DHT22;2632;51.666;7.146;2023-12-07T00:22:41;2.80;99.90
5226;DHT22;2632;51.666;7.146;2023-12-07T00:25:08;2.70;99.90
5226;DHT22;2632;51.666;7.146;2023-12-07T00:27:35;2.70;99.90
5226;DHT22;2632;51.666;7.146;2023-12-07T00:30:02;2.60;99.90
5226;DHT22;2632;51.666;7.146;2023-12-07T00:32:29;2.50;99.90
5226;DHT22;2632;51.666;7.146;2023-12-07T00:34:56;2.50;99.90
5226;DHT22;2632;51.666;7.146;2023-12-07T00:37:23;2.40;99.90
5226;DHT22;2632;51.666;7.146;2023-12-07T00:39:49;2.30;99.90
5226;DHT22;2632;51.666;7.146;2023-12-07T00:42:16;2.40;99.90
5226;DHT22;2632;51.666;7.146;2023-12-07T00:44:43;2.40;99.90
5226;DHT22;2632;51.666;7.146;2023-12-07T00:47:10;2.30;99.90
5226;DHT22;2632;51.666;7.146;2023-12-07T00:49:40;2.40;99.90
5226;DHT22;2632;51.666;7.146;2023-12-07T00:52:09;2.30;99.90
5226;DHT22;2632;51.666;7.146;2023-12-07T00:54:36;2.30;99.90
5226;DHT22;2632;51.666;7.146;2023-12-07T00:57:03;2.10;99.90
5226;DHT22;2632;51.666;7.146;2023-12-07T00:59:29;2.00;99.90
5226;DHT22;2632;51.666;7.146;2023-12-07T01:02:01;2.10;99.90
5226;DHT22;2632;51.666;7.146;2023-12-07T01:04:28;2.00;99.90
5226;DHT22;2632;51.666;7.146;2023-12-07T01:06:55;2.10;99.90
5226;DHT22;2632;51.666;7.146;2023-12-07T01:09:22;2.10;99.90
5226;DHT22;2632;51.666;7.146;2023-12-07T01:11:49;2.10;99.90
5226;DHT22;2632;51.666;7.146;2023-12-07T01:14:16;2.10;99.90
5226;DHT22;2632;51.666;7.146;2023-12-07T01:16:43;2.10;99.90
5226;DHT22;2632;51.666;7.146;2023-12-07T01:19:10;2.20;99.90
5226;DHT22;2632;51.666;7.146;2023-12-07T01:21:41;2.30;99.90
5226;DHT22;2632;51.666;7.146;2023-12-07T01:24:08;2.30;99.90
5226;DHT22;2632;51.666;7.146;2023-12-07T01:26:42;2.40;99.90
5226;DHT22;2632;51.666;7.146;2023-12-07T01:29:08;2.40;99.90
5226;DHT22;2632;51.666;7.146;2023-12-07T01:31:35;2.40;99.90
5226;DHT22;2632;51.666;7.146;2023-12-07T01:34:01;2.40;99.90
5226;DHT22;2632;51.666;7.146;2023-12-07T01:36:28;2.50;99.90
5226;DHT22;2632;51.666;7.146;2023-12-07T01:38:55;2.50;99.90
5226;DHT22;2632;51.666;7.146;2023-12-07T01:41:21;2.50;99.90
5226;DHT22;2632;51.666;7.146;2023-12-07T01:43:48;2.60;99.90
5226;DHT22;2632;51.666;7.146;2023-12-07T01:46:16;2.60;99.90
5226;DHT22;2632;51.666;7.146;2023-12-07T01:48:43;2.60;99.90
5226;DHT22;2632;51.666;7.146;2023-12-07T01:51:10;2.60;99.90
5226;DHT22;2632;51.666;7.146;2023-12-07T01:53:39;2.60;99.90
5226;DHT22;2632;51.666;7.146;2023-12-07T01:56:06;2.50;99.90
5226;DHT22;2632;51.666;7.146;2023-12-07T01:58:34;2.60;99.90
5226;DHT22;2632;51.666;7.146;2023-12-07T02:01:02;2.60;99.90
5226;DHT22;2632;51.666;7.146;2023-12-07T02:03:29;2.60;99.90
5226;DHT22;2632;51.666;7.146;2023-12-07T02:05:57;2.60;99.90
5226;DHT22;2632;51.666;7.146;2023-12-07T02:08:24;2.60;99.90
5226;DHT22;2632;51.666;7.146;2023-12-07T02:10:51;2.60;99.90
5226;DHT22;2632;51.666;7.146;2023-12-07T02:13:20;2.60;99.90
5226;DHT22;2632;51.666;7.146;2023-12-07T02:15:47;2.60;99.90
5226;DHT22;2632;51.666;7.146;2023-12-07T02:18:16;2.60;99.90
5226;DHT22;2632;51.666;7.146;2023-12-07T02:21:13;2.60;99.90
5226;DHT22;2632;51.666;7.146;2023-12-07T02:23:42;2.60;99.90
5226;DHT22;2632;51.666;7.146;2023-12-07T02:26:19;2.60;99.90
5226;DHT22;2632;51.666;7.146;2023-12-07T02:28:47;2.60;99.90
5226;DHT22;2632;51.666;7.146;2023-12-07T02:31:13;2.50;99.90
5226;DHT22;2632;51.666;7.146;2023-12-07T02:33:40;2.40;99.90
5226;DHT22;2632;51.666;7.146;2023-12-07T02:36:07;2.40;99.90
5226;DHT22;2632;51.666;7.146;2023-12-07T02:38:34;2.50;99.90
5226;DHT22;2632;51.666;7.146;2023-12-07T02:41:02;2.50;99.90
5226;DHT22;2632;51.666;7.146;2023-12-07T02:43:29;2.50;99.90
5226;DHT22;2632;51.666;7.146;2023-12-07T02:45:56;2.50;99.90
5226;DHT22;2632;51.666;7.146;2023-12-07T02:48:23;2.40;99.90
5226;DHT22;2632;51.666;7.146;2023-12-07T02:50:50;2.50;99.90
5226;DHT22;2632;51.666;7.146;2023-12-07T02:53:17;2.50;99.90
5226;DHT22;2632;51.666;7.146;2023-12-07T02:55:44;2.50;99.90
5226;DHT22;2632;51.666;7.146;2023-12-07T02:58:10;2.50;99.90
5226;DHT22;2632;51.666;7.146;2023-12-07T03:00:37;2.50;99.90
5226;DHT22;2632;51.666;7.146;2023-12-07T03:03:04;2.50;99.90
5226;DHT22;2632;51.666;7.146;2023-12-07T03:05:30;2.60;99.90
5226;DHT22;2632;51.666;7.146;2023-12-07T03:07:57;2.50;99.90
5226;DHT22;2632;51.666;7.146;2023-12-07T03:10:24;2.50;99.90
5226;DHT22;2632;51.666;7.146;2023-12-07T03:12:51;2.60;99.90
5226;DHT22;2632;51.666;7.146;2023-12-07T03:15:17;2.60;99.90
5226;DHT22;2632;51.666;7.146;2023-12-07T03:17:44;2.70;99.90
5226;DHT22;2632;51.666;7.146;2023-12-07T03:20:12;2.60;99.90
5226;DHT22;2632;51.666;7.146;2023-12-07T03:22:38;2.60;99.90
5226;DHT22;2632;51.666;7.146;2023-12-07T03:25:06;2.60;99.90
5226;DHT22;2632;51.666;7.146;2023-12-07T03:27:33;2.50;99.90
5226;DHT22;2632;51.666;7.146;2023-12-07T03:30:00;2.60;99.90
5226;DHT22;2632;51.666;7.146;2023-12-07T03:32:26;2.50;99.90
5226;DHT22;2632;51.666;7.146;2023-12-07T03:34:53;2.60;99.90
5226;DHT22;2632;51.666;7.146;2023-12-07T03:37:19;2.60;99.90
5226;DHT22;2632;51.666;7.146;2023-12-07T03:39:46;2.70;99.90
5226;DHT22;2632;51.666;7.146;2023-12-07T03:42:13;2.60;99.90
5226;DHT22;2632;51.666;7.146;2023-12-07T03:44:59;2.70;99.90
5226;DHT22;2632;51.666;7.146;2023-12-07T03:47:27;2.80;99.90
5226;DHT22;2632;51.666;7.146;2023-12-07T03:49:53;2.70;99.90
5226;DHT22;2632;51.666;7.146;2023-12-07T03:52:20;2.70;99.90
5226;DHT22;2632;51.666;7.146;2023-12-07T03:54:47;2.70;99.90
5226;DHT22;2632;51.666;7.146;2023-12-07T03:57:13;2.70;99.90
5226;DHT22;2632;51.666;7.146;2023-12-07T03:59:40;2.80;99.90
5226;DHT22;2632;51.666;7.146;2023-12-07T04:02:07;2.80;99.90
5226;DHT22;2632;51.666;7.146;2023-12-07T04:04:34;2.70;99.90
5226;DHT22;2632;51.666;7.146;2023-12-07T04:07:00;2.70;99.90
5226;DHT22;2632;51.666;7.146;2023-12-07T04:09:27;2.60;99.90
5226;DHT22;2632;51.666;7.146;2023-12-07T04:11:54;2.70;99.90
5226;DHT22;2632;51.666;7.146;2023-12-07T04:14:21;2.80;99.90
5226;DHT22;2632;51.666;7.146;2023-12-07T04:16:47;2.90;99.90
5226;DHT22;2632;51.666;7.146;2023-12-07T04:19:14;2.90;99.90
5226;DHT22;2632;51.666;7.146;2023-12-07T04:21:41;2.80;99.90
5226;DHT22;2632;51.666;7.146;2023-12-07T04:24:07;2.80;99.90
5226;DHT22;2632;51.666;7.146;2023-12-07T04:26:34;2.70;99.90
5226;DHT22;2632;51.666;7.146;2023-12-07T04:29:00;2.70;99.90
5226;DHT22;2632;51.666;7.146;2023-12-07T04:31:27;2.80;99.90
5226;DHT22;2632;51.666;7.146;2023-12-07T04:33:54;2.90;99.90
5226;DHT22;2632;51.666;7.146;2023-12-07T04:36:20;2.90;99.90
5226;DHT22;2632;51.666;7.146;2023-12-07T04:38:47;2.90;99.90
5226;DHT22;2632;51.666;7.146;2023-12-07T04:41:14;3.00;99.90
5226;DHT22;2632;51.666;7.146;2023-12-07T04:43:40;3.00;99.90
5226;DHT22;2632;51.666;7.146;2023-12-07T04:46:07;2.90;99.90
5226;DHT22;2632;51.666;7.146;2023-12-07T04:48:34;2.90;99.90
5226;DHT22;2632;51.666;7.146;2023-12-07T04:51:00;2.90;99.90
5226;DHT22;2632;51.666;7.146;2023-12-07T04:53:27;2.90;99.90
5226;DHT22;2632;51.666;7.146;2023-12-07T04:55:54;2.80;99.90
5226;DHT22;2632;51.666;7.146;2023-12-07T04:58:20;2.80;99.90
5226;DHT22;2632;51.666;7.146;2023-12-07T05:00:47;3.00;99.90
5226;DHT22;2632;51.666;7.146;2023-12-07T05:03:14;3.00;99.90
5226;DHT22;2632;51.666;7.146;2023-12-07T05:05:41;3.00;99.90
5226;DHT22;2632;51.666;7.146;2023-12-07T05:08:08;3.00;99.90
5226;DHT22;2632;51.666;7.146;2023-12-07T05:10:35;3.10;99.90
5226;DHT22;2632;51.666;7.146;2023-12-07T05:13:01;3.10;99.90
5226;DHT22;2632;51.666;7.146;2023-12-07T05:15:28;3.10;99.90
5226;DHT22;2632;51.666;7.146;2023-12-07T05:17:55;3.20;99.90
5226;DHT22;2632;51.666;7.146;2023-12-07T05:20:21;3.20;99.90
5226;DHT22;2632;51.666;7.146;2023-12-07T05:22:50;3.20;99.90
5226;DHT22;2632;51.666;7.146;2023-12-07T05:25:17;3.30;99.90
5226;DHT22;2632;51.666;7.146;2023-12-07T05:27:44;3.30;99.90
5226;DHT22;2632;51.666;7.146;2023-12-07T05:30:11;3.40;99.90
5226;DHT22;2632;51.666;7.146;2023-12-07T05:32:39;3.40;99.90
5226;DHT22;2632;51.666;7.146;2023-12-07T05:35:06;3.40;99.90
5226;DHT22;2632;51.666;7.146;2023-12-07T05:37:33;3.40;99.90
5226;DHT22;2632;51.666;7.146;2023-12-07T05:40:00;3.30;99.90
5226;DHT22;2632;51.666;7.146;2023-12-07T05:42:27;3.40;99.90
5226;DHT22;2632;51.666;7.146;2023-12-07T05:44:54;3.40;99.90
5226;DHT22;2632;51.666;7.146;2023-12-07T05:47:20;3.40;99.90
5226;DHT22;2632;51.666;7.146;2023-12-07T05:49:47;3.40;99.90
5226;DHT22;2632;51.666;7.146;2023-12-07T05:52:14;3.40;99.90
5226;DHT22;2632;51.666;7.146;2023-12-07T05:54:40;3.50;99.90
5226;DHT22;2632;51.666;7.146;2023-12-07T05:57:13;3.60;99.90
5226;DHT22;2632;51.666;7.146;2023-12-07T05:59:40;3.60;99.90
5226;DHT22;2632;51.666;7.146;2023-12-07T06:02:08;3.50;99.90
5226;DHT22;2632;51.666;7.146;2023-12-07T06:04:35;3.50;99.90
5226;DHT22;2632;51.666;7.146;2023-12-07T06:07:02;3.50;99.90
5226;DHT22;2632;51.666;7.146;2023-12-07T06:09:29;3.50;99.90
5226;DHT22;2632;51.666;7.146;2023-12-07T06:11:55;3.60;99.90
5226;DHT22;2632;51.666;7.146;2023-12-07T06:14:22;3.60;99.90
5226;DHT22;2632;51.666;7.146;2023-12-07T06:16:52;3.60;99.90
5226;DHT22;2632;51.666;7.146;2023-12-07T06:19:18;3.60;99.90
5226;DHT22;2632;51.666;7.146;2023-12-07T06:21:45;3.50;99.90
5226;DHT22;2632;51.666;7.146;2023-12-07T06:24:12;3.50;99.90
5226;DHT22;2632;51.666;7.146;2023-12-07T06:26:40;3.50;99.90
5226;DHT22;2632;51.666;7.146;2023-12-07T06:29:07;3.50;99.90
5226;DHT22;2632;51.666;7.146;2023-12-07T06:31:34;3.50;99.90
5226;DHT22;2632;51.666;7.146;2023-12-07T06:34:00;3.50;99.90
5226;DHT22;2632;51.666;7.146;2023-12-07T06:36:27;3.40;99.90
5226;DHT22;2632;51.666;7.146;2023-12-07T06:38:54;3.40;99.90
5226;DHT22;2632;51.666;7.146;2023-12-07T06:41:21;3.40;99.90
5226;DHT22;2632;51.666;7.146;2023-12-07T06:43:48;3.40;99.90
5226;DHT22;2632;51.666;7.146;2023-12-07T06:46:15;3.40;99.90
5226;DHT22;2632;51.666;7.146;2023-12-07T06:48:43;3.40;99.90
5226;DHT22;2632;51.666;7.146;2023-12-07T06:51:09;3.40;99.90
5226;DHT22;2632;51.666;7.146;2023-12-07T06:53:36;3.30;99.90
5226;DHT22;2632;51.666;7.146;2023-12-07T06:56:03;3.40;99.90
5226;DHT22;2632;51.666;7.146;2023-12-07T06:58:30;3.40;99.90
5226;DHT22;2632;51.666;7.146;2023-12-07T07:00:56;3.50;99.90
5226;DHT22;2632;51.666;7.146;2023-12-07T07:03:24;3.50;99.90
5226;DHT22;2632;51.666;7.146;2023-12-07T07:05:51;3.50;99.90
5226;DHT22;2632;51.666;7.146;2023-12-07T07:08:18;3.50;99.90
5226;DHT22;2632;51.666;7.146;2023-12-07T07:10:44;3.40;99.90
5226;DHT22;2632;51.666;7.146;2023-12-07T07:13:13;3.30;99.90
5226;DHT22;2632;51.666;7.146;2023-12-07T07:15:42;3.30;99.90
5226;DHT22;2632;51.666;7.146;2023-12-07T07:18:10;3.30;99.90
5226;DHT22;2632;51.666;7.146;2023-12-07T07:20:37;3.30;99.90
5226;DHT22;2632;51.666;7.146;2023-12-07T07:23:03;3.40;99.90
5226;DHT22;2632;51.666;7.146;2023-12-07T07:25:30;3.40;99.90
5226;DHT22;2632;51.666;7.146;2023-12-07T07:27:57;3.30;99.90
5226;DHT22;2632;51.666;7.146;2023-12-07T07:30:23;3.20;99.90
5226;DHT22;2632;51.666;7.146;2023-12-07T07:32:50;3.10;99.90
5226;DHT22;2632;51.666;7.146;2023-12-07T07:35:17;3.10;99.90
5226;DHT22;2632;51.666;7.146;2023-12-07T07:37:44;2.90;99.90
5226;DHT22;2632;51.666;7.146;2023-12-07T07:40:11;2.90;99.90
5226;DHT22;2632;51.666;7.146;2023-12-07T07:42:38;2.80;99.90
5226;DHT22;2632;51.666;7.146;2023-12-07T07:45:08;2.70;99.90
5226;DHT22;2632;51.666;7.146;2023-12-07T07:47:35;2.70;99.90
5226;DHT22;2632;51.666;7.146;2023-12-07T07:50:02;2.80;99.90
5226;DHT22;2632;51.666;7.146;2023-12-07T07:52:33;2.80;99.90
5226;DHT22;2632;51.666;7.146;2023-12-07T07:55:00;2.90;99.90
5226;DHT22;2632;51.666;7.146;2023-12-07T07:57:29;2.90;99.90
5226;DHT22;2632;51.666;7.146;2023-12-07T07:59:57;2.80;99.90
5226;DHT22;2632;51.666;7.146;2023-12-07T08:02:24;2.70;99.90
5226;DHT22;2632;51.666;7.146;2023-12-07T08:04:51;2.80;99.90
5226;DHT22;2632;51.666;7.146;2023-12-07T08:07:18;3.00;99.90
5226;DHT22;2632;51.666;7.146;2023-12-07T08:09:45;3.10;99.90
5226;DHT22;2632;51.666;7.146;2023-12-07T08:12:12;3.10;99.90
5226;DHT22;2632;51.666;7.146;2023-12-07T08:14:38;3.10;99.90
5226;DHT22;2632;51.666;7.146;2023-12-07T08:17:06;3.10;99.90
5226;DHT22;2632;51.666;7.146;2023-12-07T08:19:32;2.90;99.90
5226;DHT22;2632;51.666;7.146;2023-12-07T08:21:59;2.90;99.90
5226;DHT22;2632;51.666;7.146;2023-12-07T08:24:26;3.00;99.90
5226;DHT22;2632;51.666;7.146;2023-12-07T08:26:53;3.10;99.90
5226;DHT22;2632;51.666;7.146;2023-12-07T08:29:19;3.10;99.90
5226;DHT22;2632;51.666;7.146;2023-12-07T08:31:46;3.00;99.90
5226;DHT22;2632;51.666;7.146;2023-12-07T08:34:13;3.10;99.90
5226;DHT22;2632;51.666;7.146;2023-12-07T08:36:40;3.10;99.90
5226;DHT22;2632;51.666;7.146;2023-12-07T08:39:07;3.30;99.90
5226;DHT22;2632;51.666;7.146;2023-12-07T08:41:36;3.30;99.90
5226;DHT22;2632;51.666;7.146;2023-12-07T08:44:04;3.40;99.90
5226;DHT22;2632;51.666;7.146;2023-12-07T08:46:32;3.50;99.90
5226;DHT22;2632;51.666;7.146;2023-12-07T08:48:59;3.50;99.90
5226;DHT22;2632;51.666;7.146;2023-12-07T08:51:25;3.50;99.90
5226;DHT22;2632;51.666;7.146;2023-12-07T08:53:52;3.60;99.90
5226;DHT22;2632;51.666;7.146;2023-12-07T08:56:21;3.80;99.90
5226;DHT22;2632;51.666;7.146;2023-12-07T08:58:48;3.90;99.90
5226;DHT22;2632;51.666;7.146;2023-12-07T09:01:14;4.00;99.90
5226;DHT22;2632;51.666;7.146;2023-12-07T09:03:57;4.10;99.90
5226;DHT22;2632;51.666;7.146;2023-12-07T09:06:24;3.80;99.90
5226;DHT22;2632;51.666;7.146;2023-12-07T09:08:51;4.10;99.90
5226;DHT22;2632;51.666;7.146;2023-12-07T09:11:18;4.10;99.90
5226;DHT22;2632;51.666;7.146;2023-12-07T09:13:45;4.20;99.90
5226;DHT22;2632;51.666;7.146;2023-12-07T09:16:12;4.20;99.90
5226;DHT22;2632;51.666;7.146;2023-12-07T09:18:39;4.20;99.90
5226;DHT22;2632;51.666;7.146;2023-12-07T09:21:05;4.30;99.90
5226;DHT22;2632;51.666;7.146;2023-12-07T09:23:32;4.40;99.90
5226;DHT22;2632;51.666;7.146;2023-12-07T09:25:59;4.40;99.90
5226;DHT22;2632;51.666;7.146;2023-12-07T09:28:26;4.40;99.90
5226;DHT22;2632;51.666;7.146;2023-12-07T09:30:52;4.60;99.90
5226;DHT22;2632;51.666;7.146;2023-12-07T09:33:21;4.70;99.90
5226;DHT22;2632;51.666;7.146;2023-12-07T09:35:47;4.70;99.90
5226;DHT22;2632;51.666;7.146;2023-12-07T09:38:15;4.80;99.90
5226;DHT22;2632;51.666;7.146;2023-12-07T09:40:43;4.90;99.90
5226;DHT22;2632;51.666;7.146;2023-12-07T09:43:10;4.90;99.90
5226;DHT22;2632;51.666;7.146;2023-12-07T09:45:38;4.90;99.90
5226;DHT22;2632;51.666;7.146;2023-12-07T09:48:05;5.00;99.90
5226;DHT22;2632;51.666;7.146;2023-12-07T09:50:34;5.00;99.90
5226;DHT22;2632;51.666;7.146;2023-12-07T09:53:01;5.10;99.90
5226;DHT22;2632;51.666;7.146;2023-12-07T09:55:34;5.10;99.90
5226;DHT22;2632;51.666;7.146;2023-12-07T09:58:04;5.10;99.90
5226;DHT22;2632;51.666;7.146;2023-12-07T10:00:32;5.10;99.90
5226;DHT22;2632;51.666;7.146;2023-12-07T10:03:00;5.00;99.90
5226;DHT22;2632;51.666;7.146;2023-12-07T10:05:26;5.00;99.90
5226;DHT22;2632;51.666;7.146;2023-12-07T10:07:53;5.10;99.90
5226;DHT22;2632;51.666;7.146;2023-12-07T10:10:20;5.00;99.90
5226;DHT22;2632;51.666;7.146;2023-12-07T10:12:59;5.10;99.90
5226;DHT22;2632;51.666;7.146;2023-12-07T10:15:25;5.20;99.90
5226;DHT22;2632;51.666;7.146;2023-12-07T10:17:57;5.30;99.90
5226;DHT22;2632;51.666;7.146;2023-12-07T10:20:26;5.30;99.90
5226;DHT22;2632;51.666;7.146;2023-12-07T10:23:08;5.30;99.90
5226;DHT22;2632;51.666;7.146;2023-12-07T10:25:40;5.40;99.90
5226;DHT22;2632;51.666;7.146;2023-12-07T10:28:10;5.40;99.90
5226;DHT22;2632;51.666;7.146;2023-12-07T10:30:40;5.40;99.90
5226;DHT22;2632;51.666;7.146;2023-12-07T10:33:10;5.40;99.90
5226;DHT22;2632;51.666;7.146;2023-12-07T10:35:41;5.50;99.90
5226;DHT22;2632;51.666;7.146;2023-12-07T10:38:09;5.60;99.90
5226;DHT22;2632;51.666;7.146;2023-12-07T10:40:36;5.60;99.90
5226;DHT22;2632;51.666;7.146;2023-12-07T10:43:05;5.80;99.90
5226;DHT22;2632;51.666;7.146;2023-12-07T10:45:33;6.00;99.90
5226;DHT22;2632;51.666;7.146;2023-12-07T10:48:06;6.20;99.90
5226;DHT22;2632;51.666;7.146;2023-12-07T10:50:35;6.40;99.90
5226;DHT22;2632;51.666;7.146;2023-12-07T10:53:04;6.90;99.90
5226;DHT22;2632;51.666;7.146;2023-12-07T10:55:38;7.10;99.90
5226;DHT22;2632;51.666;7.146;2023-12-07T10:58:08;7.40;99.90
5226;DHT22;2632;51.666;7.146;2023-12-07T11:00:35;7.70;99.90
5226;DHT22;2632;51.666;7.146;2023-12-07T11:03:15;7.90;99.90
5226;DHT22;2632;51.666;7.146;2023-12-07T11:05:47;8.00;99.90
5226;DHT22;2632;51.666;7.146;2023-12-07T11:11:31;8.20;99.90
5226;DHT22;2632;51.666;7.146;2023-12-07T11:14:03;8.20;99.90
5226;DHT22;2632;51.666;7.146;2023-12-07T11:16:40;8.50;99.90
5226;DHT22;2632;51.666;7.146;2023-12-07T11:22:05;8.90;99.40
5226;DHT22;2632;51.666;7.146;2023-12-07T11:24:32;9.20;99.30
5226;DHT22;2632;51.666;7.146;2023-12-07T11:26:59;9.30;98.90
5226;DHT22;2632;51.666;7.146;2023-12-07T11:29:27;9.30;99.10
5226;DHT22;2632;51.666;7.146;2023-12-07T11:31:56;9.30;98.00
5226;DHT22;2632;51.666;7.146;2023-12-07T11:34:43;9.30;98.50
5226;DHT22;2632;51.666;7.146;2023-12-07T11:37:13;9.20;97.50
5226;DHT22;2632;51.666;7.146;2023-12-07T11:39:41;9.10;97.60
5226;DHT22;2632;51.666;7.146;2023-12-07T11:42:15;8.80;98.40
5226;DHT22;2632;51.666;7.146;2023-12-07T11:44:43;8.80;98.40
5226;DHT22;2632;51.666;7.146;2023-12-07T11:47:17;8.80;98.20
5226;DHT22;2632;51.666;7.146;2023-12-07T11:49:45;8.80;98.00
5226;DHT22;2632;51.666;7.146;2023-12-07T11:52:14;8.60;97.60
5226;DHT22;2632;51.666;7.146;2023-12-07T11:54:43;8.70;97.80
5226;DHT22;2632;51.666;7.146;2023-12-07T11:57:11;8.50;98.50
5226;DHT22;2632;51.666;7.146;2023-12-07T11:59:38;8.50;98.50
5226;DHT22;2632;51.666;7.146;2023-12-07T12:02:05;8.30;98.10
5226;DHT22;2632;51.666;7.146;2023-12-07T12:04:31;8.10;98.30
5226;DHT22;2632;51.666;7.146;2023-12-07T12:06:58;8.00;98.40
5226;DHT22;2632;51.666;7.146;2023-12-07T12:09:25;7.90;98.80
5226;DHT22;2632;51.666;7.146;2023-12-07T12:11:58;7.80;98.60
5226;DHT22;2632;51.666;7.146;2023-12-07T12:14:27;7.90;98.70
5226;DHT22;2632;51.666;7.146;2023-12-07T12:16:54;7.80;98.90
5226;DHT22;2632;51.666;7.146;2023-12-07T12:19:23;7.60;98.80
5226;DHT22;2632;51.666;7.146;2023-12-07T12:22:08;7.70;99.30
5226;DHT22;2632;51.666;7.146;2023-12-07T12:24:35;7.60;99.00
5226;DHT22;2632;51.666;7.146;2023-12-07T12:27:04;7.40;98.60
5226;DHT22;2632;51.666;7.146;2023-12-07T12:29:32;7.40;98.50
5226;DHT22;2632;51.666;7.146;2023-12-07T12:32:02;7.40;98.80
5226;DHT22;2632;51.666;7.146;2023-12-07T12:34:29;7.40;98.70
5226;DHT22;2632;51.666;7.146;2023-12-07T12:36:59;7.40;98.70
5226;DHT22;2632;51.666;7.146;2023-12-07T12:39:29;7.40;98.30
5226;DHT22;2632;51.666;7.146;2023-12-07T12:42:01;7.30;98.10
5226;DHT22;2632;51.666;7.146;2023-12-07T12:44:30;7.40;98.50
5226;DHT22;2632;51.666;7.146;2023-12-07T12:47:07;7.50;98.60
5226;DHT22;2632;51.666;7.146;2023-12-07T12:49:38;7.60;98.70
5226;DHT22;2632;51.666;7.146;2023-12-07T12:52:16;7.40;97.70
5226;DHT22;2632;51.666;7.146;2023-12-07T12:54:43;7.40;98.40
5226;DHT22;2632;51.666;7.146;2023-12-07T12:57:10;7.40;98.20
5226;DHT22;2632;51.666;7.146;2023-12-07T12:59:38;7.30;98.40
5226;DHT22;2632;51.666;7.146;2023-12-07T13:02:05;7.20;98.00
5226;DHT22;2632;51.666;7.146;2023-12-07T13:04:32;7.30;98.60
5226;DHT22;2632;51.666;7.146;2023-12-07T13:07:08;7.20;98.00
5226;DHT22;2632;51.666;7.146;2023-12-07T13:09:35;7.20;98.30
5226;DHT22;2632;51.666;7.146;2023-12-07T13:12:01;7.20;98.20
5226;DHT22;2632;51.666;7.146;2023-12-07T13:14:32;7.10;98.00
5226;DHT22;2632;51.666;7.146;2023-12-07T13:17:02;7.20;98.60
5226;DHT22;2632;51.666;7.146;2023-12-07T13:19:30;7.20;97.90
5226;DHT22;2632;51.666;7.146;2023-12-07T13:21:58;7.10;98.00
5226;DHT22;2632;51.666;7.146;2023-12-07T13:24:25;7.50;97.40
5226;DHT22;2632;51.666;7.146;2023-12-07T13:26:52;7.80;96.60
5226;DHT22;2632;51.666;7.146;2023-12-07T13:29:18;7.80;96.70
5226;DHT22;2632;51.666;7.146;2023-12-07T13:31:58;7.50;96.60
5226;DHT22;2632;51.666;7.146;2023-12-07T13:34:25;7.20;97.10
5226;DHT22;2632;51.666;7.146;2023-12-07T13:36:52;7.30;97.60
5226;DHT22;2632;51.666;7.146;2023-12-07T13:39:19;7.30;97.80
5226;DHT22;2632;51.666;7.146;2023-12-07T13:41:57;7.50;97.70
5226;DHT22;2632;51.666;7.146;2023-12-07T13:44:24;7.30;98.00
5226;DHT22;2632;51.666;7.146;2023-12-07T13:46:54;7.20;98.10
5226;DHT22;2632;51.666;7.146;2023-12-07T13:49:22;7.20;98.30
5226;DHT22;2632;51.666;7.146;2023-12-07T13:51:59;7.20;98.50
5226;DHT22;2632;51.666;7.146;2023-12-07T13:54:31;6.90;98.40
5226;DHT22;2632;51.666;7.146;2023-12-07T13:57:19;6.90;98.40
5226;DHT22;2632;51.666;7.146;2023-12-07T13:59:55;6.80;98.70
5226;DHT22;2632;51.666;7.146;2023-12-07T14:02:22;6.70;98.80
5226;DHT22;2632;51.666;7.146;2023-12-07T14:04:50;6.60;98.80
5226;DHT22;2632;51.666;7.146;2023-12-07T14:07:19;6.60;99.10
5226;DHT22;2632;51.666;7.146;2023-12-07T14:09:48;6.50;98.80
5226;DHT22;2632;51.666;7.146;2023-12-07T14:12:24;6.50;99.10
5226;DHT22;2632;51.666;7.146;2023-12-07T14:14:51;6.40;99.00
5226;DHT22;2632;51.666;7.146;2023-12-07T14:17:18;6.30;99.20
5226;DHT22;2632;51.666;7.146;2023-12-07T14:19:46;6.20;99.30
5226;DHT22;2632;51.666;7.146;2023-12-07T14:22:15;6.20;99.50
5226;DHT22;2632;51.666;7.146;2023-12-07T14:24:42;6.20;99.60
5226;DHT22;2632;51.666;7.146;2023-12-07T14:27:09;6.10;99.60
5226;DHT22;2632;51.666;7.146;2023-12-07T14:29:35;6.10;99.80
5226;DHT22;2632;51.666;7.146;2023-12-07T14:32:02;6.10;99.90
5226;DHT22;2632;51.666;7.146;2023-12-07T14:34:30;6.00;99.90
5226;DHT22;2632;51.666;7.146;2023-12-07T14:37:02;5.90;99.90
5226;DHT22;2632;51.666;7.146;2023-12-07T14:39:29;5.80;99.90
5226;DHT22;2632;51.666;7.146;2023-12-07T14:41:56;5.80;99.90
5226;DHT22;2632;51.666;7.146;2023-12-07T14:44:23;5.80;99.90
5226;DHT22;2632;51.666;7.146;2023-12-07T14:46:56;5.80;99.90
5226;DHT22;2632;51.666;7.146;2023-12-07T14:49:23;5.60;99.90
5226;DHT22;2632;51.666;7.146;2023-12-07T14:51:50;5.60;99.90
5226;DHT22;2632;51.666;7.146;2023-12-07T14:54:17;5.50;99.90
5226;DHT22;2632;51.666;7.146;2023-12-07T14:56:52;5.50;99.90
5226;DHT22;2632;51.666;7.146;2023-12-07T14:59:19;5.40;99.90
5226;DHT22;2632;51.666;7.146;2023-12-07T15:01:48;5.40;99.90
5226;DHT22;2632;51.666;7.146;2023-12-07T15:04:17;5.30;99.90
5226;DHT22;2632;51.666;7.146;2023-12-07T15:06:58;5.20;99.90
5226;DHT22;2632;51.666;7.146;2023-12-07T15:09:25;5.20;99.90
5226;DHT22;2632;51.666;7.146;2023-12-07T15:11:52;5.10;99.90
5226;DHT22;2632;51.666;7.146;2023-12-07T15:14:19;5.00;99.90
5226;DHT22;2632;51.666;7.146;2023-12-07T15:17:02;5.00;99.90
5226;DHT22;2632;51.666;7.146;2023-12-07T15:19:28;5.00;99.90
5226;DHT22;2632;51.666;7.146;2023-12-07T15:21:55;4.90;99.90
5226;DHT22;2632;51.666;7.146;2023-12-07T15:24:22;4.80;99.90
5226;DHT22;2632;51.666;7.146;2023-12-07T15:27:01;4.80;99.90
5226;DHT22;2632;51.666;7.146;2023-12-07T15:29:28;4.70;99.90
5226;DHT22;2632;51.666;7.146;2023-12-07T15:31:55;4.70;99.90
5226;DHT22;2632;51.666;7.146;2023-12-07T15:34:22;4.60;99.90
5226;DHT22;2632;51.666;7.146;2023-12-07T15:37:03;4.60;99.90
5226;DHT22;2632;51.666;7.146;2023-12-07T15:39:30;4.60;99.90
5226;DHT22;2632;51.666;7.146;2023-12-07T15:41:57;4.60;99.90
5226;DHT22;2632;51.666;7.146;2023-12-07T15:44:25;4.50;99.90
5226;DHT22;2632;51.666;7.146;2023-12-07T15:46:56;4.50;99.90
5226;DHT22;2632;51.666;7.146;2023-12-07T15:49:23;4.50;99.90
5226;DHT22;2632;51.666;7.146;2023-12-07T15:51:51;4.40;99.90
5226;DHT22;2632;51.666;7.146;2023-12-07T15:54:17;4.30;99.90
5226;DHT22;2632;51.666;7.146;2023-12-07T15:57:03;4.30;99.90
5226;DHT22;2632;51.666;7.146;2023-12-07T15:59:29;4.20;99.90
5226;DHT22;2632;51.666;7.146;2023-12-07T16:01:56;4.20;99.90
5226;DHT22;2632;51.666;7.146;2023-12-07T16:04:23;4.20;99.90
5226;DHT22;2632;51.666;7.146;2023-12-07T16:07:00;4.30;99.90
5226;DHT22;2632;51.666;7.146;2023-12-07T16:09:33;4.20;99.90
5226;DHT22;2632;51.666;7.146;2023-12-07T16:12:00;4.20;99.90
5226;DHT22;2632;51.666;7.146;2023-12-07T16:14:27;4.10;99.90
5226;DHT22;2632;51.666;7.146;2023-12-07T16:16:57;4.10;99.90
5226;DHT22;2632;51.666;7.146;2023-12-07T16:19:25;4.10;99.90
5226;DHT22;2632;51.666;7.146;2023-12-07T16:21:52;4.00;99.90
5226;DHT22;2632;51.666;7.146;2023-12-07T16:24:19;4.00;99.90
5226;DHT22;2632;51.666;7.146;2023-12-07T16:26:46;4.00;99.90
5226;DHT22;2632;51.666;7.146;2023-12-07T16:29:13;4.00;99.90